ENAN

Andøya Airport

Andenes, Norway
METAR ENAN 181320Z 01010KT 9999 FEW015 BKN041 M01/M07 Q0995
Observed Flight Rules
Jan-18 @ 13:20 UTC (29 minutes ago) Visual Flight Rules
Wind Visibility Clouds
10° at 10 knots 10,000+ meters
  • Few at 1,500' AGL
  • Broken at 4,100' AGL
Temperatures Readings
Current -1°C / 30°F
Dewpoint -7°C / 19°F
Humidity 64%
Altimeter 29.38" Hg
Pressure 994.92 hPa
Elevation 14
METAR ENAN 181320Z 01010KT 9999 FEW015 BKN041 M01/M07 Q0995
Observed Flight Rules
Jan-18 @ 13:20 UTC
(29 minutes ago)
VFR
Wind Visibility
10° at 10 knots 10,000+ meters
Clouds
  • Few at 1,500' AGL
  • Broken at 4,100' AGL
Temperature Dewpoint
-1°C / 30°F -7°C / 19°F
Humidity Altimeter Pressure
64% 29.38" Hg 994.92 hPa